createdAt,value
2017-05-21T00:02:24.073Z,43.00
2017-05-21T00:04:52.299Z,43.00
2017-05-21T00:07:20.626Z,43.00
2017-05-21T00:09:48.902Z,43.00
2017-05-21T00:12:17.181Z,43.00
2017-05-21T00:14:45.418Z,43.00
2017-05-21T00:17:13.653Z,43.00
2017-05-21T00:19:41.877Z,42.90
2017-05-21T00:22:10.117Z,43.00
2017-05-21T00:24:38.454Z,43.00
2017-05-21T00:27:06.711Z,42.90
2017-05-21T00:29:34.948Z,42.90
2017-05-21T00:32:03.269Z,43.00
2017-05-21T00:34:31.507Z,42.90
2017-05-21T00:36:59.009Z,42.90
2017-05-21T00:39:27.255Z,42.80
2017-05-21T00:41:55.555Z,42.80
2017-05-21T00:44:23.791Z,42.80
2017-05-21T00:46:52.103Z,42.80
2017-05-21T00:49:20.347Z,42.90
2017-05-21T00:51:48.567Z,42.80
2017-05-21T00:54:16.810Z,43.10
2017-05-21T00:56:44.274Z,42.80
2017-05-21T00:59:12.510Z,42.90
2017-05-21T01:01:40.846Z,42.70
2017-05-21T01:04:09.071Z,43.10
2017-05-21T01:06:36.556Z,43.40
2017-05-21T01:09:04.775Z,42.90
2017-05-21T01:11:33.119Z,42.60
2017-05-21T01:14:00.589Z,42.60
2017-05-21T01:16:28.816Z,42.80
2017-05-21T01:18:56.286Z,42.70
2017-05-21T01:21:24.511Z,42.80
2017-05-21T01:23:52.735Z,42.60
2017-05-21T01:26:20.974Z,42.70
2017-05-21T01:28:49.190Z,42.60
2017-05-21T01:31:17.493Z,42.70
2017-05-21T01:33:45.737Z,42.60
2017-05-21T01:36:14.041Z,42.60
2017-05-21T01:38:42.290Z,42.80
2017-05-21T01:41:10.597Z,42.60
2017-05-21T01:43:38.851Z,42.70
2017-05-21T01:46:07.082Z,42.60
2017-05-21T01:48:35.317Z,42.70
2017-05-21T01:51:02.785Z,42.60
2017-05-21T01:53:31.043Z,42.60
2017-05-21T01:55:59.282Z,42.60
2017-05-21T01:58:27.605Z,42.50
2017-05-21T02:00:55.841Z,42.60
2017-05-21T02:03:24.078Z,42.40
2017-05-21T02:05:52.418Z,42.50
2017-05-21T02:08:20.658Z,42.50
2017-05-21T02:10:48.903Z,42.50
2017-05-21T02:13:17.152Z,42.60
2017-05-21T02:15:45.524Z,42.40
2017-05-21T02:18:13.762Z,42.60
2017-05-21T02:20:41.999Z,42.50
2017-05-21T02:23:10.237Z,42.40
2017-05-21T02:25:38.533Z,42.50
2017-05-21T02:28:06.769Z,42.40
2017-05-21T02:30:35.006Z,42.50
2017-05-21T02:33:03.227Z,42.40
2017-05-21T02:35:31.451Z,42.80
2017-05-21T02:37:59.679Z,42.50
2017-05-21T02:40:27.986Z,42.40
2017-05-21T02:42:56.212Z,42.50
2017-05-21T02:45:24.450Z,42.40
2017-05-21T02:47:52.687Z,42.20
2017-05-21T02:50:20.923Z,42.50
2017-05-21T02:52:49.182Z,42.40
2017-05-21T02:55:17.404Z,42.30
2017-05-21T02:57:45.623Z,42.40
2017-05-21T03:00:13.843Z,42.20
2017-05-21T03:02:42.085Z,42.40
2017-05-21T03:05:10.304Z,42.30
2017-05-21T03:07:38.606Z,42.20
2017-05-21T03:10:06.842Z,42.60
2017-05-21T03:12:35.156Z,42.20
2017-05-21T03:15:03.433Z,42.20
2017-05-21T03:17:31.699Z,42.80
2017-05-21T03:19:59.946Z,42.10
2017-05-21T03:22:28.181Z,42.20
2017-05-21T03:24:56.545Z,42.20
2017-05-21T03:27:24.795Z,42.20
2017-05-21T03:29:53.086Z,42.20
2017-05-21T03:32:21.365Z,42.10
2017-05-21T03:34:49.632Z,42.20
2017-05-21T03:37:17.914Z,42.10
2017-05-21T03:39:46.149Z,42.10
2017-05-21T03:42:14.455Z,42.20
2017-05-21T03:44:42.706Z,42.00
2017-05-21T03:47:10.926Z,42.10
2017-05-21T03:49:39.161Z,42.20
2017-05-21T03:52:07.382Z,42.00
2017-05-21T03:54:35.621Z,42.20
2017-05-21T03:57:03.904Z,42.10
2017-05-21T03:59:32.194Z,42.10
2017-05-21T04:02:00.436Z,42.20
2017-05-21T04:04:28.674Z,42.00
2017-05-21T04:06:56.927Z,42.10
2017-05-21T04:09:25.161Z,42.10
2017-05-21T04:11:52.619Z,42.00
2017-05-21T04:14:20.854Z,42.10
2017-05-21T04:16:49.080Z,41.90
2017-05-21T04:19:17.382Z,42.00
2017-05-21T04:21:45.617Z,42.00
2017-05-21T04:24:13.917Z,41.90
2017-05-21T04:26:42.192Z,42.00
2017-05-21T04:29:10.436Z,41.90
2017-05-21T04:31:38.665Z,41.90
2017-05-21T04:34:06.910Z,42.00
2017-05-21T04:36:35.201Z,41.90
2017-05-21T04:39:03.521Z,42.50
2017-05-21T04:41:31.724Z,41.90
2017-05-21T04:44:00.030Z,41.90
2017-05-21T04:46:28.301Z,41.90
2017-05-21T04:48:56.529Z,41.90
2017-05-21T04:51:24.749Z,41.90
2017-05-21T04:53:52.991Z,41.90
2017-05-21T04:56:21.211Z,41.90
2017-05-21T04:58:49.481Z,41.90
2017-05-21T05:01:17.718Z,41.80
2017-05-21T05:03:45.937Z,41.90
2017-05-21T05:06:14.182Z,41.80
2017-05-21T05:08:42.478Z,41.90
2017-05-21T05:11:10.739Z,41.80
2017-05-21T05:13:39.030Z,41.80
2017-05-21T05:16:07.289Z,41.80
2017-05-21T05:18:35.515Z,41.90
2017-05-21T05:21:03.743Z,41.90
2017-05-21T05:23:31.983Z,41.90
2017-05-21T05:26:00.213Z,41.90
2017-05-21T05:28:28.467Z,41.80
2017-05-21T05:30:56.753Z,41.90
2017-05-21T05:33:24.977Z,41.90
2017-05-21T05:35:53.207Z,42.00
2017-05-21T05:38:21.460Z,42.30
2017-05-21T05:40:49.748Z,42.60
2017-05-21T05:43:17.977Z,42.70
2017-05-21T05:45:46.204Z,42.80
2017-05-21T05:48:14.445Z,43.20
2017-05-21T05:50:42.675Z,42.60
2017-05-21T05:53:10.944Z,42.70
2017-05-21T05:55:39.206Z,42.70
2017-05-21T05:58:07.442Z,42.80
2017-05-21T06:00:35.681Z,42.70
2017-05-21T06:03:03.919Z,42.60
2017-05-21T06:05:32.158Z,42.60
2017-05-21T06:08:00.472Z,42.60
2017-05-21T06:10:28.696Z,42.60
2017-05-21T06:12:57.030Z,42.60
2017-05-21T06:15:25.295Z,42.60
2017-05-21T06:17:53.522Z,42.60
2017-05-21T06:20:21.857Z,42.60
2017-05-21T06:22:50.138Z,42.70
2017-05-21T06:25:18.378Z,42.60
2017-05-21T06:27:46.613Z,42.70
2017-05-21T06:30:14.857Z,42.70
2017-05-21T06:32:43.181Z,42.90
2017-05-21T06:35:11.442Z,43.00
2017-05-21T06:37:39.663Z,42.90
2017-05-21T06:40:07.906Z,42.90
2017-05-21T06:42:36.128Z,42.90
2017-05-21T06:45:04.414Z,42.80
2017-05-21T06:47:32.654Z,42.80
2017-05-21T06:50:00.890Z,42.80
2017-05-21T06:52:29.239Z,43.00
2017-05-21T06:54:57.506Z,43.00
2017-05-21T06:57:25.741Z,42.90
2017-05-21T06:59:53.960Z,42.80
2017-05-21T07:02:22.241Z,43.10
2017-05-21T07:04:50.467Z,42.80
2017-05-21T07:07:18.790Z,42.80
2017-05-21T07:09:46.258Z,42.80
2017-05-21T07:12:14.524Z,42.90
2017-05-21T07:14:42.803Z,42.90
2017-05-21T07:17:11.046Z,42.80
2017-05-21T07:19:39.281Z,42.80
2017-05-21T07:22:07.611Z,42.80
2017-05-21T07:24:35.906Z,42.80
2017-05-21T07:27:04.137Z,42.80
2017-05-21T07:29:32.453Z,42.90
2017-05-21T07:32:00.738Z,42.90
2017-05-21T07:34:28.960Z,42.90
2017-05-21T07:36:57.188Z,42.90
2017-05-21T07:39:25.447Z,43.00
2017-05-21T07:41:53.729Z,42.90
2017-05-21T07:44:21.962Z,43.00
2017-05-21T07:46:50.198Z,43.00
2017-05-21T07:49:18.543Z,42.90
2017-05-21T07:51:46.792Z,42.80
2017-05-21T07:54:15.037Z,42.80
2017-05-21T07:56:43.270Z,42.80
2017-05-21T07:59:11.523Z,42.90
2017-05-21T08:01:39.761Z,43.00
2017-05-21T08:04:08.099Z,43.00
2017-05-21T08:06:36.342Z,43.00
2017-05-21T08:09:04.578Z,43.00
2017-05-21T08:11:32.799Z,43.00
2017-05-21T08:14:01.105Z,43.00
2017-05-21T08:16:29.341Z,43.00
2017-05-21T08:18:57.579Z,43.00
2017-05-21T08:21:25.813Z,43.00
2017-05-21T08:23:54.110Z,42.90
2017-05-21T08:26:22.385Z,42.90
2017-05-21T08:28:50.642Z,42.90
2017-05-21T08:31:18.873Z,43.00
2017-05-21T08:33:47.109Z,43.00
2017-05-21T08:36:15.375Z,43.00
2017-05-21T08:38:43.599Z,43.10
2017-05-21T08:41:11.932Z,43.30
2017-05-21T08:43:40.173Z,39.70
2017-05-21T08:46:08.399Z,40.10
2017-05-21T08:48:36.627Z,40.50
2017-05-21T08:51:04.938Z,40.80
2017-05-21T08:53:33.173Z,41.00
2017-05-21T08:56:01.493Z,41.10
2017-05-21T08:58:29.725Z,40.80
2017-05-21T09:00:57.943Z,41.00
2017-05-21T09:03:26.213Z,41.70
2017-05-21T09:05:54.479Z,41.40
2017-05-21T09:08:22.756Z,40.20
2017-05-21T09:10:51.032Z,40.50
2017-05-21T09:13:19.267Z,41.30
2017-05-21T09:15:47.505Z,41.80
2017-05-21T09:18:15.870Z,42.50
2017-05-21T09:20:44.147Z,42.80
2017-05-21T09:23:12.395Z,40.00
2017-05-21T09:25:40.627Z,39.80
2017-05-21T09:28:08.872Z,38.70
2017-05-21T09:30:37.110Z,40.30
2017-05-21T09:33:05.346Z,40.50
2017-05-21T09:35:33.585Z,40.70
2017-05-21T09:38:01.811Z,40.60
2017-05-21T09:40:30.132Z,40.60
2017-05-21T09:42:58.370Z,39.80
2017-05-21T09:45:26.701Z,39.30
2017-05-21T09:47:54.923Z,40.30
2017-05-21T09:50:23.297Z,39.40
2017-05-21T09:52:51.529Z,40.60
2017-05-21T09:55:19.755Z,39.90
2017-05-21T09:57:48.082Z,39.10
2017-05-21T10:00:16.358Z,40.00
2017-05-21T10:02:44.597Z,40.40
2017-05-21T10:05:12.818Z,39.20
2017-05-21T10:07:41.080Z,39.10
2017-05-21T10:10:09.354Z,39.50
2017-05-21T10:12:37.609Z,39.10
2017-05-21T10:15:05.909Z,38.00
2017-05-21T10:17:34.155Z,39.20
2017-05-21T10:20:02.452Z,38.80
2017-05-21T10:22:30.737Z,38.50
2017-05-21T10:24:58.994Z,38.90
2017-05-21T10:27:27.238Z,39.10
2017-05-21T10:29:55.563Z,38.10
2017-05-21T10:32:23.792Z,38.10
2017-05-21T10:34:52.016Z,38.00
2017-05-21T10:37:20.242Z,39.20
2017-05-21T10:39:48.556Z,38.40
2017-05-21T10:42:16.794Z,37.40
2017-05-21T10:44:45.055Z,37.20
2017-05-21T10:47:13.389Z,38.50
2017-05-21T10:49:41.655Z,38.20
2017-05-21T10:52:09.903Z,38.70
2017-05-21T10:54:38.132Z,38.90
2017-05-21T10:57:06.369Z,37.60
2017-05-21T10:59:34.623Z,36.40
2017-05-21T11:02:02.945Z,37.30
2017-05-21T11:04:31.218Z,37.60
2017-05-21T11:06:59.458Z,37.00
2017-05-21T11:09:26.911Z,37.00
2017-05-21T11:11:55.136Z,36.60
2017-05-21T11:14:23.410Z,35.40
2017-05-21T11:16:51.642Z,35.90
2017-05-21T11:19:19.878Z,36.80
2017-05-21T11:21:48.230Z,37.10
2017-05-21T11:24:16.495Z,37.70
2017-05-21T11:26:44.771Z,36.90
2017-05-21T11:29:12.995Z,36.30
2017-05-21T11:31:41.243Z,36.70
2017-05-21T11:34:09.496Z,36.80
2017-05-21T11:36:37.732Z,37.00
2017-05-21T11:39:05.237Z,37.00
2017-05-21T11:41:33.462Z,37.30
2017-05-21T11:44:01.779Z,36.00
2017-05-21T11:46:30.018Z,36.60
2017-05-21T11:48:58.331Z,37.20
2017-05-21T11:51:26.569Z,37.60
2017-05-21T11:53:54.818Z,37.50
2017-05-21T11:56:23.152Z,37.70
2017-05-21T11:58:51.436Z,38.20
2017-05-21T12:01:19.673Z,37.40
2017-05-21T12:03:48.049Z,37.40
2017-05-21T12:06:16.262Z,37.80
2017-05-21T12:08:44.545Z,37.20
2017-05-21T12:11:12.826Z,37.30
2017-05-21T12:13:41.107Z,37.00
2017-05-21T12:16:09.357Z,36.30
2017-05-21T12:18:36.923Z,36.20
2017-05-21T12:21:05.214Z,36.60
2017-05-21T12:23:33.453Z,36.60
2017-05-21T12:26:01.679Z,36.70
2017-05-21T12:28:29.925Z,36.70
2017-05-21T12:30:58.163Z,36.70
2017-05-21T12:33:26.485Z,36.80
2017-05-21T12:35:54.761Z,35.90
2017-05-21T12:38:23.042Z,36.00
2017-05-21T12:40:51.281Z,35.70
2017-05-21T12:43:19.592Z,35.60
2017-05-21T12:45:47.833Z,36.00
2017-05-21T12:48:16.142Z,35.70
2017-05-21T12:50:44.392Z,35.30
2017-05-21T12:53:12.685Z,35.20
2017-05-21T12:55:40.912Z,35.50
2017-05-21T12:58:09.146Z,35.90
2017-05-21T13:00:37.408Z,35.20
2017-05-21T13:03:05.650Z,35.80
2017-05-21T13:05:33.104Z,35.80
2017-05-21T13:08:01.425Z,34.80
2017-05-21T13:10:29.657Z,34.40
2017-05-21T13:12:57.887Z,34.00
2017-05-21T13:15:26.150Z,35.70
2017-05-21T13:17:54.375Z,34.60
2017-05-21T13:20:22.617Z,35.10
2017-05-21T13:22:50.118Z,35.00
2017-05-21T13:25:18.334Z,34.50
2017-05-21T13:27:46.566Z,35.70
2017-05-21T13:30:14.786Z,33.00
2017-05-21T13:32:43.062Z,33.10
2017-05-21T13:35:11.298Z,34.40
2017-05-21T13:37:39.533Z,34.60
2017-05-21T13:40:07.769Z,34.60
2017-05-21T13:42:36.001Z,33.50
2017-05-21T13:45:04.338Z,32.60
2017-05-21T13:47:32.577Z,33.30
2017-05-21T13:50:00.831Z,32.10
2017-05-21T13:52:29.076Z,32.80
2017-05-21T13:54:57.321Z,32.10
2017-05-21T13:57:25.563Z,31.30
2017-05-21T13:59:53.788Z,31.20
2017-05-21T14:02:22.012Z,31.90
2017-05-21T14:04:50.249Z,32.50
2017-05-21T14:07:18.493Z,31.50
2017-05-21T14:09:46.729Z,30.80
2017-05-21T14:12:14.973Z,30.90
2017-05-21T14:14:43.215Z,31.30
2017-05-21T14:17:11.439Z,30.10
2017-05-21T14:19:39.672Z,30.30
2017-05-21T14:22:07.888Z,30.10
2017-05-21T14:24:36.237Z,30.80
2017-05-21T14:27:04.499Z,29.90
2017-05-21T14:29:32.789Z,31.10
2017-05-21T14:32:01.025Z,30.40
2017-05-21T14:34:29.384Z,30.30
2017-05-21T14:36:57.617Z,30.90
2017-05-21T14:39:25.897Z,30.30
2017-05-21T14:41:54.140Z,30.70
2017-05-21T14:44:22.402Z,28.60
2017-05-21T14:46:50.643Z,29.00
2017-05-21T14:49:18.869Z,30.00
2017-05-21T14:51:47.092Z,29.60
2017-05-21T14:54:15.330Z,30.60
2017-05-21T14:56:43.553Z,30.10
2017-05-21T14:59:11.878Z,29.70
2017-05-21T15:01:40.119Z,29.40
2017-05-21T15:04:08.339Z,30.70
2017-05-21T15:06:36.567Z,29.50
2017-05-21T15:09:04.889Z,30.00
2017-05-21T15:11:32.399Z,29.90
2017-05-21T15:14:00.635Z,29.10
2017-05-21T15:16:28.883Z,29.70
2017-05-21T15:18:57.261Z,29.50
2017-05-21T15:21:25.483Z,30.30
2017-05-21T15:26:28.414Z,30.10
2017-05-21T15:28:55.871Z,30.10
2017-05-21T15:31:24.497Z,30.90
2017-05-21T15:33:52.746Z,30.60
2017-05-21T15:36:21.047Z,30.50
2017-05-21T15:38:49.298Z,31.40
2017-05-21T15:41:17.528Z,30.90
2017-05-21T15:43:45.858Z,30.60
2017-05-21T15:46:14.146Z,29.90
2017-05-21T15:48:42.387Z,30.40
2017-05-21T15:51:10.607Z,29.90
2017-05-21T15:53:38.850Z,30.50
2017-05-21T15:56:07.146Z,30.50
2017-05-21T15:58:35.421Z,30.40
2017-05-21T16:01:03.650Z,30.70
2017-05-21T16:03:31.889Z,31.60
2017-05-21T16:06:00.120Z,31.10
2017-05-21T16:08:28.422Z,31.50
2017-05-21T16:10:56.697Z,32.70
2017-05-21T16:13:24.933Z,31.70
2017-05-21T16:15:53.240Z,31.00
2017-05-21T16:18:21.525Z,31.20
2017-05-21T16:20:49.751Z,30.80
2017-05-21T16:23:17.971Z,31.40
2017-05-21T16:25:46.214Z,33.00
2017-05-21T16:28:14.450Z,32.60
2017-05-21T16:30:42.672Z,32.30
2017-05-21T16:33:10.978Z,31.40
2017-05-21T16:35:39.216Z,30.30
2017-05-21T16:38:07.525Z,31.00
2017-05-21T16:40:35.751Z,30.50
2017-05-21T16:43:04.069Z,30.90
2017-05-21T16:45:32.334Z,30.00
2017-05-21T16:48:00.576Z,29.80
2017-05-21T16:50:28.955Z,32.20
2017-05-21T16:52:57.190Z,32.60
2017-05-21T16:55:25.421Z,33.10
2017-05-21T16:57:53.658Z,33.50
2017-05-21T17:00:21.887Z,33.70
2017-05-21T17:02:50.178Z,34.00
2017-05-21T17:05:18.447Z,34.20
2017-05-21T17:07:46.683Z,34.30
2017-05-21T17:10:15.009Z,34.50
2017-05-21T17:12:43.246Z,34.70
2017-05-21T17:15:11.517Z,34.70
2017-05-21T17:17:39.833Z,34.90
2017-05-21T17:20:08.065Z,35.00
2017-05-21T17:22:36.386Z,35.20
2017-05-21T17:25:04.629Z,35.30
2017-05-21T17:27:32.855Z,35.40
2017-05-21T17:30:01.098Z,35.60
2017-05-21T17:32:29.376Z,35.80
2017-05-21T17:34:57.599Z,35.90
2017-05-21T17:37:25.845Z,36.10
2017-05-21T17:39:54.079Z,36.20
2017-05-21T17:42:22.313Z,36.50
2017-05-21T17:44:50.554Z,36.50
2017-05-21T17:47:18.775Z,36.70
2017-05-21T17:49:47.012Z,36.70
2017-05-21T17:52:15.244Z,37.00
2017-05-21T17:54:43.549Z,37.00
2017-05-21T17:57:11.775Z,37.20
2017-05-21T17:59:40.015Z,37.40
2017-05-21T18:02:08.240Z,37.30
2017-05-21T18:04:35.717Z,37.30
2017-05-21T18:07:04.002Z,37.60
2017-05-21T18:09:32.246Z,37.60
2017-05-21T18:12:00.470Z,37.80
2017-05-21T18:14:28.702Z,38.10
2017-05-21T18:16:56.941Z,38.00
2017-05-21T18:19:25.284Z,38.10
2017-05-21T18:21:53.565Z,38.30
2017-05-21T18:24:21.799Z,38.20
2017-05-21T18:26:49.274Z,38.10
2017-05-21T18:29:17.563Z,38.30
2017-05-21T18:31:45.794Z,38.40
2017-05-21T18:34:14.042Z,38.50
2017-05-21T18:36:42.315Z,38.50
2017-05-21T18:39:10.577Z,38.70
2017-05-21T18:41:38.829Z,38.80
2017-05-21T18:44:06.298Z,38.70
2017-05-21T18:46:34.536Z,38.90
2017-05-21T18:49:02.870Z,38.90
2017-05-21T18:51:31.138Z,39.00
2017-05-21T18:53:59.378Z,39.30
2017-05-21T18:56:27.603Z,39.00
2017-05-21T18:58:55.861Z,39.10
2017-05-21T19:01:24.120Z,39.20
2017-05-21T19:03:52.452Z,39.30
2017-05-21T19:06:20.670Z,39.30
2017-05-21T19:08:48.909Z,39.30
2017-05-21T19:11:17.224Z,39.40
2017-05-21T19:13:45.463Z,39.40
2017-05-21T19:16:13.695Z,39.30
2017-05-21T19:18:41.977Z,39.40
2017-05-21T19:21:10.214Z,39.80
2017-05-21T19:23:38.453Z,39.50
2017-05-21T19:26:05.921Z,39.40
2017-05-21T19:28:34.158Z,39.60
2017-05-21T19:31:02.413Z,39.60
2017-05-21T19:33:30.649Z,39.70
2017-05-21T19:35:58.974Z,39.50
2017-05-21T19:38:27.205Z,39.70
2017-05-21T19:40:55.507Z,39.60
2017-05-21T19:43:23.745Z,39.80
2017-05-21T19:45:51.966Z,39.70
2017-05-21T19:48:20.205Z,39.70
2017-05-21T19:50:48.526Z,39.70
2017-05-21T19:53:16.794Z,40.10
2017-05-21T19:55:45.046Z,40.50
2017-05-21T19:58:13.275Z,40.30
2017-05-21T20:00:41.509Z,40.60
2017-05-21T20:03:09.732Z,40.40
2017-05-21T20:05:37.960Z,40.40
2017-05-21T20:08:06.198Z,40.50
2017-05-21T20:10:34.433Z,41.10
2017-05-21T20:13:02.679Z,40.70
2017-05-21T20:15:30.917Z,41.20
2017-05-21T20:17:59.243Z,41.30
2017-05-21T20:20:27.507Z,41.50
2017-05-21T20:22:55.753Z,41.40
2017-05-21T20:25:24.073Z,41.10
2017-05-21T20:27:52.435Z,41.00
2017-05-21T20:30:20.682Z,40.80
2017-05-21T20:32:48.917Z,40.80
2017-05-21T20:35:17.160Z,41.10
2017-05-21T20:37:45.435Z,41.00
2017-05-21T20:40:13.722Z,41.10
2017-05-21T20:42:41.956Z,41.10
2017-05-21T20:45:10.263Z,41.10
2017-05-21T20:47:38.501Z,41.10
2017-05-21T20:50:06.733Z,41.10
2017-05-21T20:52:34.974Z,41.00
2017-05-21T20:55:03.228Z,41.00
2017-05-21T20:57:31.457Z,41.10
2017-05-21T20:59:59.821Z,41.00
2017-05-21T21:02:28.059Z,40.80
2017-05-21T21:04:55.525Z,40.80
2017-05-21T21:07:23.752Z,40.90
2017-05-21T21:09:51.985Z,41.00
2017-05-21T21:12:20.282Z,40.90
2017-05-21T21:14:48.517Z,41.00
2017-05-21T21:17:16.754Z,40.80
2017-05-21T21:19:44.978Z,40.90
2017-05-21T21:22:13.219Z,40.90
2017-05-21T21:24:41.453Z,40.80
2017-05-21T21:27:09.697Z,40.90
2017-05-21T21:29:37.931Z,40.90
2017-05-21T21:32:06.278Z,40.90
2017-05-21T21:34:34.503Z,41.00
2017-05-21T21:37:01.995Z,41.00
2017-05-21T21:39:30.286Z,40.90
2017-05-21T21:41:58.513Z,40.90
2017-05-21T21:44:26.748Z,41.50
2017-05-21T21:46:54.975Z,40.90
2017-05-21T21:49:23.294Z,40.90
2017-05-21T21:51:51.511Z,41.00
2017-05-21T21:54:19.827Z,41.00
2017-05-21T21:56:48.112Z,40.90
2017-05-21T21:59:16.391Z,41.40
2017-05-21T22:01:44.625Z,40.80
2017-05-21T22:04:12.854Z,41.00
2017-05-21T22:06:41.117Z,40.80
2017-05-21T22:09:09.369Z,40.90
2017-05-21T22:11:37.659Z,40.90
2017-05-21T22:14:05.902Z,40.80
2017-05-21T22:16:33.380Z,40.80
2017-05-21T22:19:01.720Z,40.90
2017-05-21T22:21:29.953Z,40.90
2017-05-21T22:23:58.229Z,40.90
2017-05-21T22:26:26.491Z,40.90
2017-05-21T22:28:54.720Z,40.90
2017-05-21T22:31:23.053Z,40.90
2017-05-21T22:33:51.327Z,40.90
2017-05-21T22:36:19.565Z,41.00
2017-05-21T22:38:47.879Z,40.90
2017-05-21T22:41:16.126Z,41.60
2017-05-21T22:43:44.348Z,41.00
2017-05-21T22:46:12.608Z,41.10
2017-05-21T22:48:40.867Z,41.00
2017-05-21T22:51:09.117Z,41.10
2017-05-21T22:53:37.353Z,41.00
2017-05-21T22:56:05.578Z,41.00
2017-05-21T22:58:33.878Z,41.10
2017-05-21T23:01:02.119Z,41.60
2017-05-21T23:03:30.434Z,41.10
2017-05-21T23:05:58.655Z,41.10
2017-05-21T23:08:26.985Z,41.20
2017-05-21T23:10:55.222Z,41.20
2017-05-21T23:13:23.452Z,41.20
2017-05-21T23:15:51.697Z,41.10
2017-05-21T23:18:19.981Z,41.20
2017-05-21T23:20:48.217Z,41.20
2017-05-21T23:23:16.454Z,41.10
2017-05-21T23:25:44.727Z,41.20
2017-05-21T23:28:12.985Z,41.20
2017-05-21T23:30:41.211Z,41.10
2017-05-21T23:33:08.681Z,41.10
2017-05-21T23:35:36.921Z,41.10
2017-05-21T23:38:05.161Z,41.10
2017-05-21T23:40:33.387Z,41.10
2017-05-21T23:43:01.630Z,41.10
2017-05-21T23:45:29.972Z,41.10
2017-05-21T23:47:57.435Z,41.10
2017-05-21T23:50:25.721Z,41.10
2017-05-21T23:52:53.951Z,41.40
2017-05-21T23:55:22.193Z,41.10
2017-05-21T23:57:50.411Z,41.10
